Time;durP1;ratioP1;P1;durP2;ratioP2;P2;SDS_P1;SDS_P2;PMS_P1;PMS_P2;Temp;Humidity;BMP_temperature;BMP_pressure;BME280_temperature;BME280_humidity;BME280_pressure;Samples;Min_cycle;Max_cycle;Signal;HPM_P1;HPM_P2
2022/03/10 06:00:20;;;;;;;19.27;16.50;;;4.70;95.60;;;;;;1712630;28;20182;-82
2022/03/10 06:01:11;;;;;;;17.98;15.93;;;4.70;95.50;;;;;;1714771;28;20664;-80
2022/03/10 06:02:03;;;;;;;18.85;16.85;;;4.70;95.50;;;;;;1714778;28;20206;-80
2022/03/10 06:02:54;;;;;;;19.45;16.52;;;4.70;95.50;;;;;;1714800;28;20684;-80
2022/03/10 06:03:45;;;;;;;18.63;16.60;;;4.70;95.50;;;;;;1714636;28;20594;-81
2022/03/10 06:04:36;;;;;;;18.75;16.42;;;4.70;95.40;;;;;;1708375;28;20243;-80
2022/03/10 06:05:28;;;;;;;18.23;16.23;;;4.80;95.40;;;;;;1708060;29;20203;-81
2022/03/10 06:06:19;;;;;;;19.23;16.27;;;4.70;95.40;;;;;;1708299;29;20776;-81
2022/03/10 06:07:10;;;;;;;23.90;16.70;;;4.70;95.50;;;;;;1708149;29;20638;-81
2022/03/10 06:08:01;;;;;;;18.55;16.60;;;4.70;95.50;;;;;;1707852;29;20218;-81
2022/03/10 06:08:53;;;;;;;18.10;16.20;;;4.80;95.60;;;;;;1708342;29;20266;-81
2022/03/10 06:09:44;;;;;;;19.70;17.20;;;4.80;95.60;;;;;;1708193;29;20206;-84
2022/03/10 06:10:35;;;;;;;19.77;16.80;;;4.70;95.60;;;;;;1707890;29;20217;-81
2022/03/10 06:11:26;;;;;;;18.10;16.13;;;4.80;95.60;;;;;;1708052;29;20248;-83
2022/03/10 06:12:20;;;;;;;19.67;17.47;;;4.80;95.60;;;;;;1708158;29;20206;-83
2022/03/10 06:13:11;;;;;;;18.88;16.50;;;4.80;95.60;;;;;;1708274;29;20210;-83
2022/03/10 06:14:03;;;;;;;18.10;16.20;;;4.80;95.70;;;;;;1708104;29;20278;-83
2022/03/10 06:14:54;;;;;;;19.33;17.33;;;4.80;95.70;;;;;;1708219;29;20210;-83
2022/03/10 06:15:47;;;;;;;19.50;17.50;;;4.80;95.70;;;;;;1708260;29;20289;-83
2022/03/10 06:16:39;;;;;;;18.50;16.50;;;4.70;95.70;;;;;;1708117;29;20229;-83
2022/03/10 06:17:31;;;;;;;17.83;15.93;;;4.80;95.80;;;;;;1708167;29;20257;-83
2022/03/10 06:18:21;;;;;;;20.30;16.95;;;4.80;95.80;;;;;;1707885;29;20213;-83
2022/03/10 06:19:14;;;;;;;18.40;16.50;;;4.80;95.80;;;;;;1708231;29;20217;-83
2022/03/10 06:20:06;;;;;;;21.52;17.65;;;4.80;95.80;;;;;;1708213;29;20646;-84
2022/03/10 06:20:58;;;;;;;23.52;17.08;;;4.80;95.80;;;;;;1708037;29;20654;-82
2022/03/10 06:21:51;;;;;;;19.50;17.30;;;4.70;95.80;;;;;;1701678;29;20254;-82
2022/03/10 06:22:43;;;;;;;20.30;16.83;;;4.70;95.90;;;;;;1701273;29;20203;-83
2022/03/10 06:23:34;;;;;;;22.05;18.50;;;4.70;96.00;;;;;;1701508;29;20682;-82
2022/03/10 06:24:25;;;;;;;19.13;17.23;;;4.70;96.00;;;;;;1701503;29;20639;-81
2022/03/10 06:25:16;;;;;;;19.92;17.83;;;4.70;96.00;;;;;;1701546;29;20581;-82
2022/03/10 06:26:08;;;;;;;21.23;18.57;;;4.70;96.10;;;;;;1701614;29;20309;-82
2022/03/10 06:26:59;;;;;;;20.23;17.52;;;4.70;96.10;;;;;;1704581;29;20223;-81
2022/03/10 06:27:50;;;;;;;20.07;17.97;;;4.70;96.20;;;;;;1711767;28;20206;-81
2022/03/10 06:28:41;;;;;;;23.10;18.38;;;4.70;96.40;;;;;;1707543;28;20234;-86
2022/03/10 06:29:33;;;;;;;21.80;19.53;;;4.60;96.50;;;;;;1708962;28;20205;-85
2022/03/10 06:30:24;;;;;;;20.98;18.83;;;4.60;96.60;;;;;;1711862;28;20449;-85
2022/03/10 06:31:17;;;;;;;20.63;18.43;;;4.60;96.80;;;;;;1708027;28;20204;-84
2022/03/10 06:32:08;;;;;;;19.27;17.27;;;4.60;96.90;;;;;;1708003;29;20206;-83
2022/03/10 06:32:59;;;;;;;21.40;18.30;;;4.50;97.20;;;;;;1708056;29;20203;-84
2022/03/10 06:33:50;;;;;;;20.50;18.35;;;4.60;97.20;;;;;;1707627;29;20373;-84
2022/03/10 06:34:42;;;;;;;21.13;18.40;;;4.60;97.20;;;;;;1708119;28;20289;-84
2022/03/10 06:35:33;;;;;;;20.10;18.10;;;4.60;97.20;;;;;;1707391;29;20485;-84
2022/03/10 06:36:25;;;;;;;23.33;19.27;;;4.60;97.20;;;;;;1707449;29;20202;-81
2022/03/10 06:37:15;;;;;;;19.27;17.27;;;4.60;97.20;;;;;;1711348;28;20665;-83
2022/03/10 06:38:08;;;;;;;22.23;18.53;;;4.60;97.20;;;;;;1713290;28;20863;-83
2022/03/10 06:38:59;;;;;;;23.85;18.30;;;4.60;97.20;;;;;;1714240;28;20213;-83
2022/03/10 06:39:52;;;;;;;19.50;17.37;;;4.60;97.20;;;;;;1704282;28;20290;-81
2022/03/10 06:40:43;;;;;;;20.63;18.00;;;4.70;97.20;;;;;;1707303;29;20466;-82
2022/03/10 06:41:35;;;;;;;20.20;17.07;;;4.70;97.20;;;;;;1707798;29;20198;-82
2022/03/10 06:42:26;;;;;;;24.45;18.85;;;4.70;97.20;;;;;;1707957;29;20199;-82
2022/03/10 06:43:18;;;;;;;19.50;17.50;;;4.80;97.20;;;;;;1707947;28;20222;-82
2022/03/10 06:44:08;;;;;;;18.30;16.30;;;4.80;97.20;;;;;;1707979;29;20508;-81
2022/03/10 06:45:00;;;;;;;17.90;16.00;;;4.80;97.20;;;;;;1708159;29;20265;-82
2022/03/10 06:45:51;;;;;;;19.05;17.02;;;4.80;97.20;;;;;;1707646;29;20199;-82
2022/03/10 06:46:44;;;;;;;19.07;17.03;;;4.80;97.20;;;;;;1707474;28;20226;-83
2022/03/10 06:47:35;;;;;;;19.23;17.20;;;4.80;97.20;;;;;;1700950;29;20206;-82
2022/03/10 06:48:27;;;;;;;19.10;16.17;;;4.80;97.20;;;;;;1711879;28;20225;-82
2022/03/10 06:49:18;;;;;;;19.02;16.20;;;4.80;97.20;;;;;;1714192;28;20842;-82
2022/03/10 06:50:10;;;;;;;18.60;16.50;;;4.80;97.20;;;;;;1714279;28;20683;-81
2022/03/10 06:51:01;;;;;;;23.08;18.13;;;4.90;97.20;;;;;;1714352;28;20496;-82
2022/03/10 06:51:53;;;;;;;20.30;16.60;;;4.90;97.20;;;;;;1714177;28;20248;-83
2022/03/10 06:52:44;;;;;;;18.90;16.90;;;4.90;97.20;;;;;;1714275;28;20449;-81
2022/03/10 06:53:35;;;;;;;20.63;18.43;;;5.00;97.20;;;;;;1714222;28;20252;-81
2022/03/10 06:54:27;;;;;;;19.08;16.83;;;5.00;97.20;;;;;;1714388;28;20449;-82
2022/03/10 06:55:20;;;;;;;21.48;17.60;;;5.00;97.20;;;;;;1714227;28;20205;-82
2022/03/10 06:56:10;;;;;;;20.05;18.05;;;5.10;97.20;;;;;;1714300;28;20696;-82
2022/03/10 06:57:02;;;;;;;21.07;18.40;;;5.10;97.20;;;;;;1712225;28;20559;-82
2022/03/10 06:57:54;;;;;;;19.52;17.33;;;5.20;97.20;;;;;;1707533;28;20203;-82
2022/03/10 06:58:46;;;;;;;19.73;17.40;;;5.20;97.20;;;;;;1714069;28;20212;-82
2022/03/10 06:59:37;;;;;;;20.05;17.20;;;5.20;97.20;;;;;;1714585;28;20209;-82
2022/03/10 07:00:29;;;;;;;20.50;17.30;;;5.20;97.20;;;;;;1711411;28;20219;-82
2022/03/10 07:01:20;;;;;;;20.05;17.00;;;5.30;97.20;;;;;;1707845;29;20221;-81
2022/03/10 07:02:13;;;;;;;22.10;19.00;;;5.30;97.20;;;;;;1708152;28;20207;-82
2022/03/10 07:03:04;;;;;;;23.70;18.50;;;5.40;97.20;;;;;;1708559;28;20202;-82
2022/03/10 07:03:57;;;;;;;25.80;20.83;;;5.40;97.20;;;;;;1707900;29;20588;-81
2022/03/10 07:04:48;;;;;;;29.85;20.67;;;5.40;97.10;;;;;;1708110;28;20234;-82
2022/03/10 07:05:40;;;;;;;24.93;21.83;;;5.50;97.10;;;;;;1707928;28;20203;-82
2022/03/10 07:06:31;;;;;;;24.10;21.27;;;5.50;97.10;;;;;;1707758;29;20217;-81
2022/03/10 07:07:23;;;;;;;25.67;22.03;;;5.60;97.10;;;;;;1708438;29;20312;-82
2022/03/10 07:08:13;;;;;;;27.15;24.27;;;5.60;97.00;;;;;;1708037;29;20199;-82
2022/03/10 07:09:05;;;;;;;25.13;22.40;;;5.60;97.10;;;;;;1707533;29;20194;-82
2022/03/10 07:09:56;;;;;;;26.85;24.17;;;5.60;97.10;;;;;;1706739;29;20214;-82
2022/03/10 07:10:48;;;;;;;29.70;26.47;;;5.60;97.20;;;;;;1706837;29;20200;-82
2022/03/10 07:11:38;;;;;;;34.58;31.13;;;5.70;97.20;;;;;;1704744;29;20203;-82
2022/03/10 07:12:30;;;;;;;35.27;31.77;;;5.70;97.20;;;;;;1707023;29;20194;-82
2022/03/10 07:13:21;;;;;;;36.70;32.92;;;5.70;97.20;;;;;;1706467;29;20203;-82
2022/03/10 07:14:13;;;;;;;32.97;29.67;;;5.70;97.20;;;;;;1707803;29;20202;-83
2022/03/10 07:15:05;;;;;;;31.23;27.98;;;5.80;97.20;;;;;;1707964;28;20521;-83
2022/03/10 07:15:56;;;;;;;28.25;24.90;;;5.80;97.20;;;;;;1710881;28;20195;-82
2022/03/10 07:16:47;;;;;;;27.30;23.42;;;5.80;97.20;;;;;;1708171;28;21021;-82
2022/03/10 07:17:40;;;;;;;28.50;21.03;;;5.80;97.20;;;;;;1707692;29;20650;-82
2022/03/10 07:18:31;;;;;;;22.92;19.60;;;5.90;97.20;;;;;;1708476;28;20210;-83
2022/03/10 07:19:22;;;;;;;21.50;19.30;;;5.90;97.20;;;;;;1711171;28;20210;-83
2022/03/10 07:20:14;;;;;;;24.13;19.15;;;6.00;97.20;;;;;;1712801;28;20198;-82
2022/03/10 07:21:06;;;;;;;20.98;18.20;;;6.00;97.10;;;;;;1708711;28;20234;-83
2022/03/10 07:21:57;;;;;;;20.20;18.00;;;6.10;97.10;;;;;;1704794;28;20230;-82
2022/03/10 07:22:48;;;;;;;21.40;17.50;;;6.10;97.10;;;;;;1707981;29;20213;-82
2022/03/10 07:23:39;;;;;;;19.83;17.65;;;6.10;97.10;;;;;;1713350;28;20222;-82
2022/03/10 07:24:31;;;;;;;21.67;17.57;;;6.20;97.00;;;;;;1708512;28;20367;-83
2022/03/10 07:25:22;;;;;;;22.38;17.92;;;6.20;96.90;;;;;;1711491;28;20198;-82
2022/03/10 07:26:14;;;;;;;21.50;17.73;;;6.30;96.90;;;;;;1708771;28;20190;-82
2022/03/10 07:27:06;;;;;;;20.10;17.95;;;6.30;96.90;;;;;;1707769;29;20242;-82
2022/03/10 07:27:57;;;;;;;20.48;17.10;;;6.40;96.80;;;;;;1708733;28;20254;-82
2022/03/10 07:28:48;;;;;;;20.52;17.05;;;6.40;96.80;;;;;;1713932;28;20209;-82
2022/03/10 07:29:40;;;;;;;20.30;17.98;;;6.50;96.50;;;;;;1712116;28;20269;-82
2022/03/10 07:30:31;;;;;;;23.13;17.83;;;6.50;96.40;;;;;;1712510;28;20214;-82
2022/03/10 07:31:22;;;;;;;19.80;17.13;;;6.60;96.40;;;;;;1707693;28;20234;-82
2022/03/10 07:32:13;;;;;;;19.52;16.88;;;6.60;96.40;;;;;;1713910;28;20637;-82
2022/03/10 07:33:06;;;;;;;22.30;17.13;;;6.70;96.30;;;;;;1714621;28;20561;-82
2022/03/10 07:33:57;;;;;;;21.63;17.42;;;6.70;96.10;;;;;;1711841;28;20493;-83
2022/03/10 07:34:49;;;;;;;20.23;16.55;;;6.80;96.00;;;;;;1713763;28;20210;-82
2022/03/10 07:35:41;;;;;;;20.10;16.75;;;6.80;95.90;;;;;;1711571;28;20211;-82
2022/03/10 07:36:32;;;;;;;21.02;16.63;;;6.80;95.80;;;;;;1709712;28;20223;-82
2022/03/10 07:37:24;;;;;;;22.65;17.58;;;6.90;95.80;;;;;;1713671;28;20221;-82
2022/03/10 07:38:14;;;;;;;21.45;17.30;;;6.90;95.80;;;;;;1712434;28;20233;-82
2022/03/10 07:39:06;;;;;;;20.37;18.00;;;6.90;95.80;;;;;;1714383;28;20208;-82
2022/03/10 07:39:57;;;;;;;20.40;16.88;;;7.00;95.50;;;;;;1714323;28;20233;-82
2022/03/10 07:40:49;;;;;;;18.93;15.73;;;7.00;95.40;;;;;;1714360;28;20208;-82
2022/03/10 07:41:39;;;;;;;22.20;18.42;;;7.00;95.10;;;;;;1714585;28;20227;-82
2022/03/10 07:42:32;;;;;;;20.17;16.90;;;7.10;95.00;;;;;;1714463;28;20544;-82
2022/03/10 07:43:23;;;;;;;18.73;16.00;;;7.10;94.90;;;;;;1714399;28;20528;-82
2022/03/10 07:44:14;;;;;;;20.92;17.50;;;7.10;94.90;;;;;;1715677;28;20232;-81
2022/03/10 07:45:06;;;;;;;19.27;17.20;;;7.10;95.10;;;;;;1715695;28;20630;-82
2022/03/10 07:45:58;;;;;;;20.88;17.15;;;7.20;95.30;;;;;;1716036;28;20252;-83
2022/03/10 07:46:49;;;;;;;21.25;17.63;;;7.20;95.10;;;;;;1716091;28;20256;-82
2022/03/10 07:47:40;;;;;;;19.73;16.70;;;7.20;95.10;;;;;;1715734;28;20235;-82
2022/03/10 07:48:33;;;;;;;19.35;16.02;;;7.30;95.00;;;;;;1711653;28;20239;-83
2022/03/10 07:49:24;;;;;;;20.25;17.73;;;7.30;94.80;;;;;;1709057;29;20604;-82
2022/03/10 07:50:15;;;;;;;21.23;17.67;;;7.40;94.80;;;;;;1709423;29;20202;-82
2022/03/10 07:51:07;;;;;;;21.33;16.58;;;7.40;94.80;;;;;;1709238;29;20198;-83
2022/03/10 07:51:58;;;;;;;17.98;15.20;;;7.50;94.60;;;;;;1709678;28;20229;-82
2022/03/10 07:52:50;;;;;;;18.50;15.37;;;7.50;94.50;;;;;;1715982;28;20204;-82
2022/03/10 07:53:40;;;;;;;18.15;16.20;;;7.50;94.20;;;;;;1715796;28;20286;-82
2022/03/10 07:54:32;;;;;;;18.37;16.00;;;7.60;94.20;;;;;;1715660;28;20307;-83
2022/03/10 07:55:23;;;;;;;18.92;16.88;;;7.60;94.40;;;;;;1715695;28;20673;-83
2022/03/10 07:56:14;;;;;;;21.73;17.47;;;7.70;94.60;;;;;;1715767;28;20577;-82
2022/03/10 07:57:05;;;;;;;19.73;17.63;;;7.70;94.80;;;;;;1715827;28;20209;-83
2022/03/10 07:57:57;;;;;;;17.40;15.50;;;7.80;94.80;;;;;;1714460;28;20198;-82
2022/03/10 07:58:48;;;;;;;18.70;16.33;;;7.90;94.70;;;;;;1708935;28;20230;-82
2022/03/10 07:59:40;;;;;;;19.17;16.47;;;8.00;94.40;;;;;;1709027;29;20220;-82
2022/03/10 08:00:32;;;;;;;19.55;17.20;;;8.00;94.40;;;;;;1712360;28;20222;-82
2022/03/10 08:01:24;;;;;;;20.23;16.40;;;8.10;94.40;;;;;;1715840;28;20233;-82
2022/03/10 08:02:14;;;;;;;20.73;15.65;;;8.10;94.40;;;;;;1715914;28;20209;-82
2022/03/10 08:03:06;;;;;;;18.43;15.30;;;8.20;94.20;;;;;;1716005;28;20689;-83
2022/03/10 08:03:58;;;;;;;19.60;16.10;;;8.30;93.80;;;;;;1716147;28;20229;-82
2022/03/10 08:04:50;;;;;;;21.27;14.70;;;8.30;93.50;;;;;;1715818;28;20216;-83
2022/03/10 08:05:41;;;;;;;20.80;15.45;;;8.40;93.50;;;;;;1715921;28;20209;-82
2022/03/10 08:06:33;;;;;;;16.50;13.70;;;8.40;93.20;;;;;;1715760;28;20257;-82
2022/03/10 08:07:24;;;;;;;17.52;14.23;;;8.50;92.90;;;;;;1715859;28;20210;-82
2022/03/10 08:08:15;;;;;;;19.80;14.40;;;8.60;92.90;;;;;;1715719;28;20681;-82
2022/03/10 08:09:06;;;;;;;16.75;12.73;;;8.60;92.70;;;;;;1715681;28;20205;-80
2022/03/10 08:09:58;;;;;;;16.90;12.60;;;8.70;92.00;;;;;;1715716;28;20216;-82
2022/03/10 08:10:49;;;;;;;15.30;13.68;;;8.80;91.80;;;;;;1709952;28;20480;-83
2022/03/10 08:11:41;;;;;;;14.87;12.30;;;8.80;91.80;;;;;;1708951;29;20287;-83
2022/03/10 08:12:33;;;;;;;18.10;12.80;;;8.90;91.90;;;;;;1709016;29;20213;-85
2022/03/10 08:13:26;;;;;;;16.60;12.70;;;8.90;91.80;;;;;;1709075;29;20206;-82
2022/03/10 08:14:17;;;;;;;14.57;12.40;;;9.00;91.50;;;;;;1708894;29;20211;-83
2022/03/10 08:15:09;;;;;;;16.90;13.13;;;9.00;91.40;;;;;;1705297;28;20242;-84
2022/03/10 08:16:00;;;;;;;15.77;11.52;;;9.10;91.40;;;;;;1706424;29;20207;-84
2022/03/10 08:16:52;;;;;;;15.18;11.70;;;9.10;90.90;;;;;;1704153;29;20211;-83
2022/03/10 08:17:42;;;;;;;15.10;11.85;;;9.10;90.50;;;;;;1709187;29;20202;-83
2022/03/10 08:18:34;;;;;;;17.73;13.03;;;9.20;90.40;;;;;;1708876;29;20242;-83
2022/03/10 08:19:26;;;;;;;17.90;12.90;;;9.20;90.50;;;;;;1709099;28;20202;-82
2022/03/10 08:20:18;;;;;;;16.85;13.30;;;9.30;90.30;;;;;;1710483;28;20202;-82
2022/03/10 08:21:09;;;;;;;18.05;13.45;;;9.30;90.20;;;;;;1706383;29;20207;-83
2022/03/10 08:22:01;;;;;;;16.57;13.33;;;9.30;90.00;;;;;;1703582;29;20222;-83
2022/03/10 08:22:52;;;;;;;14.25;12.45;;;9.40;90.10;;;;;;1708832;29;20465;-83
2022/03/10 08:23:44;;;;;;;14.55;12.95;;;9.40;90.60;;;;;;1708909;29;20218;-83
2022/03/10 08:24:36;;;;;;;15.80;12.73;;;9.50;90.20;;;;;;1708944;29;20202;-83
2022/03/10 08:25:27;;;;;;;15.50;12.68;;;9.50;90.10;;;;;;1709171;29;20214;-82
2022/03/10 08:26:19;;;;;;;16.98;13.07;;;9.50;89.60;;;;;;1709035;29;20206;-82
2022/03/10 08:27:11;;;;;;;14.20;12.70;;;9.60;89.40;;;;;;1709054;29;20206;-82
2022/03/10 08:28:02;;;;;;;18.17;12.80;;;9.60;89.80;;;;;;1710122;28;20230;-83
2022/03/10 08:28:54;;;;;;;16.20;13.43;;;9.70;90.00;;;;;;1715490;28;20236;-83
2022/03/10 08:29:46;;;;;;;16.42;13.65;;;9.70;90.10;;;;;;1715507;28;20444;-83
2022/03/10 08:30:37;;;;;;;16.15;13.80;;;9.80;90.10;;;;;;1715748;28;20202;-83
2022/03/10 08:31:29;;;;;;;19.48;14.93;;;9.90;90.00;;;;;;1715732;28;20198;-83
2022/03/10 08:32:21;;;;;;;19.10;15.60;;;9.90;89.60;;;;;;1715704;28;20202;-82
2022/03/10 08:33:13;;;;;;;17.23;13.88;;;9.90;89.50;;;;;;1712897;28;20746;-83
2022/03/10 08:34:03;;;;;;;27.92;17.08;;;10.00;89.60;;;;;;1708859;28;20229;-82
2022/03/10 08:34:57;;;;;;;20.57;16.60;;;10.00;89.80;;;;;;1708896;29;20290;-83
2022/03/10 08:35:47;;;;;;;28.77;16.80;;;10.10;90.30;;;;;;1708914;29;20713;-83
2022/03/10 08:36:39;;;;;;;22.07;16.90;;;10.10;91.00;;;;;;1709055;29;20601;-83
2022/03/10 08:37:30;;;;;;;23.65;16.15;;;10.20;91.20;;;;;;1709105;29;20462;-82
2022/03/10 08:38:22;;;;;;;27.80;17.50;;;10.20;91.40;;;;;;1712511;28;20190;-83
2022/03/10 08:39:13;;;;;;;24.42;16.48;;;10.30;91.60;;;;;;1715548;28;20454;-83
2022/03/10 08:40:06;;;;;;;22.10;18.10;;;10.40;92.10;;;;;;1715623;28;20224;-83
2022/03/10 08:40:56;;;;;;;22.00;16.42;;;10.40;92.20;;;;;;1715683;28;20208;-83
2022/03/10 08:41:49;;;;;;;23.40;15.97;;;10.50;92.30;;;;;;1715621;28;20233;-83
2022/03/10 08:42:40;;;;;;;27.15;15.50;;;10.60;92.00;;;;;;1715564;28;20574;-82
2022/03/10 08:43:32;;;;;;;24.27;16.63;;;10.60;91.80;;;;;;1715549;28;20584;-82
2022/03/10 08:44:23;;;;;;;21.35;14.73;;;10.70;91.60;;;;;;1715632;28;20216;-83
2022/03/10 08:45:15;;;;;;;19.15;14.93;;;10.70;91.20;;;;;;1715475;28;20209;-83
2022/03/10 08:46:06;;;;;;;26.48;15.38;;;10.80;90.70;;;;;;1715589;28;20201;-83
2022/03/10 08:46:58;;;;;;;24.93;15.70;;;10.80;90.10;;;;;;1715739;28;20699;-83
2022/03/10 08:47:49;;;;;;;20.75;15.43;;;10.80;90.10;;;;;;1715399;28;20999;-83
2022/03/10 08:48:44;;;;;;;21.57;15.63;;;10.90;89.80;;;;;;1711618;28;20658;-82
2022/03/10 08:49:34;;;;;;;24.48;15.40;;;10.90;89.70;;;;;;1712062;29;20599;-81
2022/03/10 08:50:28;;;;;;;19.40;14.87;;;11.00;89.50;;;;;;1711940;29;20343;-83
2022/03/10 08:51:20;;;;;;;17.63;14.65;;;11.00;89.20;;;;;;1711956;29;20211;-81
2022/03/10 08:52:11;;;;;;;16.83;13.95;;;11.10;89.00;;;;;;1712146;29;20558;-82
2022/03/10 08:53:03;;;;;;;22.08;13.50;;;11.10;88.80;;;;;;1711921;29;20217;-83
2022/03/10 08:53:54;;;;;;;15.52;13.05;;;11.10;88.20;;;;;;1712044;29;20226;-82
2022/03/10 08:54:46;;;;;;;19.07;13.07;;;11.20;87.50;;;;;;1712162;28;20234;-81
2022/03/10 08:55:37;;;;;;;18.13;13.98;;;11.20;87.20;;;;;;1712030;29;20576;-82
2022/03/10 08:56:29;;;;;;;19.55;13.27;;;11.20;87.20;;;;;;1712026;29;20198;-82
2022/03/10 08:57:20;;;;;;;25.23;13.45;;;11.20;87.20;;;;;;1712125;29;20202;-83
2022/03/10 08:58:11;;;;;;;17.48;13.45;;;11.30;87.40;;;;;;1714284;28;20202;-80
2022/03/10 08:59:02;;;;;;;17.38;14.00;;;11.40;87.60;;;;;;1716773;28;20213;-82
2022/03/10 08:59:54;;;;;;;17.97;13.20;;;11.40;87.70;;;;;;1715148;28;20229;-83
2022/03/10 09:00:45;;;;;;;16.25;13.48;;;11.50;87.60;;;;;;1715357;28;20449;-83
2022/03/10 09:01:37;;;;;;;20.73;13.37;;;11.50;87.40;;;;;;1715274;28;20233;-83
2022/03/10 09:02:28;;;;;;;16.40;14.63;;;11.60;87.30;;;;;;1714947;28;20453;-82
2022/03/10 09:03:20;;;;;;;21.33;13.80;;;11.70;87.10;;;;;;1714991;28;20205;-83
2022/03/10 09:04:11;;;;;;;21.90;14.43;;;11.70;87.10;;;;;;1715187;28;20206;-83
2022/03/10 09:05:04;;;;;;;18.53;13.77;;;11.80;87.20;;;;;;1715094;28;20197;-83
2022/03/10 09:05:56;;;;;;;19.45;13.65;;;11.90;86.90;;;;;;1715006;28;20206;-83
2022/03/10 09:06:48;;;;;;;17.52;14.00;;;12.00;86.70;;;;;;1715157;28;20210;-82
2022/03/10 09:07:40;;;;;;;16.70;13.50;;;12.10;86.50;;;;;;1715142;28;20314;-83
2022/03/10 09:08:33;;;;;;;15.90;13.18;;;12.20;86.20;;;;;;1708920;28;20199;-81
2022/03/10 09:09:24;;;;;;;14.63;13.05;;;12.30;86.10;;;;;;1707841;29;20214;-83
2022/03/10 09:10:16;;;;;;;17.10;12.97;;;12.40;85.90;;;;;;1701988;29;20199;-82
2022/03/10 09:11:07;;;;;;;15.05;13.23;;;12.60;85.50;;;;;;1701821;29;20218;-83
2022/03/10 09:11:59;;;;;;;15.93;13.60;;;12.70;85.20;;;;;;1701954;29;20683;-83
2022/03/10 09:12:51;;;;;;;15.27;13.60;;;12.90;85.20;;;;;;1701594;29;20470;-83
2022/03/10 09:13:48;;;;;;;16.65;13.23;;;13.00;85.00;;;;;;1701571;29;20331;-83
2022/03/10 09:14:38;;;;;;;16.45;13.52;;;13.20;84.50;;;;;;1702092;29;20239;-83
2022/03/10 09:15:30;;;;;;;17.37;13.67;;;13.30;84.30;;;;;;1701953;29;20202;-80
2022/03/10 09:16:22;;;;;;;18.05;14.23;;;13.50;84.40;;;;;;1712170;28;21294;-82
2022/03/10 09:17:14;;;;;;;16.33;13.73;;;13.70;84.30;;;;;;1715205;28;20201;-82
2022/03/10 09:18:05;;;;;;;20.20;15.95;;;13.80;84.00;;;;;;1714828;28;20221;-83
2022/03/10 09:18:57;;;;;;;19.00;14.97;;;14.00;83.70;;;;;;1715177;28;20293;-80
2022/03/10 09:19:49;;;;;;;19.13;15.45;;;14.10;83.20;;;;;;1715082;28;20456;-82
2022/03/10 09:20:40;;;;;;;16.88;15.20;;;14.30;83.00;;;;;;1715050;28;20723;-82
2022/03/10 09:21:33;;;;;;;16.70;13.37;;;14.50;82.70;;;;;;1714882;28;20661;-82
2022/03/10 09:22:25;;;;;;;18.35;15.05;;;14.70;82.60;;;;;;1714857;28;20213;-82
2022/03/10 09:23:17;;;;;;;17.20;13.77;;;14.80;81.60;;;;;;1714910;28;20217;-83
2022/03/10 09:24:09;;;;;;;14.90;13.07;;;15.00;81.10;;;;;;1715171;28;20214;-82
2022/03/10 09:25:02;;;;;;;15.40;13.75;;;15.10;80.60;;;;;;1715065;28;20716;-83
2022/03/10 09:25:53;;;;;;;14.85;12.68;;;15.30;80.40;;;;;;1713386;28;20206;-80
2022/03/10 09:26:44;;;;;;;14.80;12.50;;;15.40;80.20;;;;;;1715116;28;20205;-83
2022/03/10 09:27:36;;;;;;;16.40;12.88;;;15.60;80.00;;;;;;1715081;28;20206;-82
2022/03/10 09:28:28;;;;;;;14.23;12.82;;;15.70;79.70;;;;;;1714386;28;20213;-82
2022/03/10 09:29:19;;;;;;;13.57;12.00;;;15.90;79.60;;;;;;1714951;28;20205;-82
2022/03/10 09:30:12;;;;;;;14.83;13.20;;;16.00;78.40;;;;;;1715156;28;20206;-83
2022/03/10 09:31:04;;;;;;;16.30;12.50;;;16.10;78.10;;;;;;1715201;28;20453;-82
2022/03/10 09:31:55;;;;;;;15.77;13.23;;;16.30;78.20;;;;;;1715276;28;20202;-82
2022/03/10 09:32:46;;;;;;;15.75;12.93;;;16.40;78.20;;;;;;1715017;28;20555;-83
2022/03/10 09:33:38;;;;;;;16.00;13.43;;;16.60;78.20;;;;;;1715065;28;20796;-83
2022/03/10 09:34:29;;;;;;;16.52;14.13;;;16.80;77.80;;;;;;1715267;28;20464;-83
2022/03/10 09:35:21;;;;;;;15.57;14.07;;;16.90;77.40;;;;;;1715273;28;20289;-83
2022/03/10 09:36:13;;;;;;;17.33;13.80;;;17.10;77.10;;;;;;1710780;28;20728;-83
2022/03/10 09:37:07;;;;;;;22.58;13.90;;;17.20;76.90;;;;;;1708979;29;20589;-84
2022/03/10 09:37:58;;;;;;;15.50;13.80;;;17.40;76.50;;;;;;1708401;29;20262;-84
2022/03/10 09:38:49;;;;;;;13.67;12.23;;;17.50;76.00;;;;;;1707990;29;20210;-84
2022/03/10 09:39:40;;;;;;;18.35;12.55;;;17.60;75.70;;;;;;1708247;29;20202;-83
2022/03/10 09:40:32;;;;;;;14.33;12.73;;;17.70;75.80;;;;;;1708393;29;20213;-83
2022/03/10 09:41:24;;;;;;;15.15;13.57;;;17.90;75.40;;;;;;1708621;29;20214;-84
2022/03/10 09:42:18;;;;;;;16.98;13.15;;;18.00;75.40;;;;;;1708736;29;20206;-84
2022/03/10 09:43:10;;;;;;;13.60;11.75;;;18.20;75.40;;;;;;1708837;29;20203;-83
2022/03/10 09:44:02;;;;;;;13.37;12.07;;;18.30;75.00;;;;;;1708593;29;20246;-83
2022/03/10 09:44:54;;;;;;;13.77;12.35;;;18.40;74.20;;;;;;1708592;29;20454;-83
2022/03/10 09:45:46;;;;;;;15.23;12.50;;;18.60;74.10;;;;;;1708900;28;20237;-83
2022/03/10 09:46:37;;;;;;;14.80;13.30;;;18.70;73.60;;;;;;1714551;28;20206;-83
2022/03/10 09:47:29;;;;;;;16.65;12.77;;;18.80;73.80;;;;;;1715096;28;20205;-82
2022/03/10 09:48:20;;;;;;;15.90;12.93;;;18.90;73.30;;;;;;1714845;28;20693;-83
2022/03/10 09:49:12;;;;;;;13.43;12.00;;;19.10;73.20;;;;;;1714966;28;20613;-83
2022/03/10 09:50:05;;;;;;;14.35;12.55;;;19.20;73.10;;;;;;1714904;28;20449;-83
2022/03/10 09:50:56;;;;;;;14.07;12.77;;;19.30;72.90;;;;;;1715331;28;20573;-83
2022/03/10 09:51:48;;;;;;;13.93;12.52;;;19.40;72.90;;;;;;1715067;28;20561;-83
2022/03/10 09:52:42;;;;;;;13.13;11.83;;;19.50;72.80;;;;;;1714990;28;20260;-83
2022/03/10 09:53:35;;;;;;;17.90;11.00;;;19.60;72.40;;;;;;1715098;28;20484;-83
2022/03/10 09:54:26;;;;;;;12.57;11.37;;;19.70;71.80;;;;;;1715013;28;20461;-84
2022/03/10 09:55:19;;;;;;;13.87;11.27;;;19.80;71.50;;;;;;1715328;28;20512;-83
2022/03/10 09:56:10;;;;;;;12.82;11.63;;;19.90;70.90;;;;;;1711565;28;20493;-83
2022/03/10 09:57:02;;;;;;;12.70;11.50;;;19.90;70.60;;;;;;1708509;29;20210;-84
2022/03/10 09:57:55;;;;;;;12.90;11.17;;;20.00;70.70;;;;;;1708737;28;20210;-83
2022/03/10 09:58:46;;;;;;;15.23;11.47;;;20.10;70.60;;;;;;1714932;28;20473;-83
2022/03/10 09:59:48;;;;;;;13.13;11.73;;;20.10;70.60;;;;;;1714777;28;20959;-85
2022/03/10 10:00:39;;;;;;;14.13;11.63;;;20.20;70.40;;;;;;1715065;28;20206;-82
2022/03/10 10:01:31;;;;;;;14.10;12.00;;;20.30;70.30;;;;;;1715310;28;20441;-82
2022/03/10 10:02:22;;;;;;;13.40;12.00;;;20.30;70.40;;;;;;1715247;28;20214;-83
2022/03/10 10:03:13;;;;;;;12.00;10.80;;;20.40;70.60;;;;;;1715356;28;20532;-82
2022/03/10 10:04:06;;;;;;;12.90;11.60;;;20.50;70.20;;;;;;1715023;28;20232;-83
2022/03/10 10:04:58;;;;;;;11.80;10.77;;;20.50;69.60;;;;;;1715037;28;20453;-83
2022/03/10 10:05:48;;;;;;;11.93;10.83;;;20.60;69.70;;;;;;1714718;28;20460;-82
2022/03/10 10:07:02;;;;;;;13.30;11.30;;;20.70;69.70;;;;;;1708343;28;20477;-83
2022/03/10 10:08:09;;;;;;;13.27;11.90;;;20.80;69.80;;;;;;1709571;28;20206;-82
2022/03/10 10:09:00;;;;;;;12.10;11.00;;;20.90;69.30;;;;;;1715070;28;20453;-83
2022/03/10 10:09:54;;;;;;;11.80;10.60;;;20.90;69.20;;;;;;1710781;28;20509;-82
2022/03/10 10:10:48;;;;;;;12.00;10.80;;;21.00;69.10;;;;;;1709159;29;20213;-83
2022/03/10 10:11:39;;;;;;;14.50;10.80;;;21.00;69.00;;;;;;1708718;29;20452;-83
2022/03/10 10:12:31;;;;;;;12.07;10.90;;;21.00;68.70;;;;;;1708990;29;20521;-83
2022/03/10 10:13:27;;;;;;;12.63;11.40;;;21.00;68.60;;;;;;1708892;28;20202;-83
2022/03/10 10:14:37;;;;;;;11.63;10.43;;;21.10;68.50;;;;;;1708781;29;20442;-83
2022/03/10 10:15:34;;;;;;;11.50;10.48;;;21.10;68.40;;;;;;1711399;28;20453;-83
2022/03/10 10:16:25;;;;;;;11.07;9.95;;;21.10;68.40;;;;;;1715021;28;20217;-83
2022/03/10 10:17:25;;;;;;;13.10;10.20;;;21.10;68.50;;;;;;1712858;28;20208;-83
2022/03/10 10:18:16;;;;;;;12.23;11.03;;;21.20;68.80;;;;;;1707743;29;20869;-83
2022/03/10 10:19:18;;;;;;;11.83;10.60;;;21.20;68.60;;;;;;1707589;29;20476;-83
2022/03/10 10:20:09;;;;;;;13.70;10.40;;;21.30;68.10;;;;;;1708064;29;20203;-84
2022/03/10 10:21:02;;;;;;;13.60;10.27;;;21.30;68.10;;;;;;1707674;29;20589;-83
2022/03/10 10:22:08;;;;;;;12.27;11.07;;;21.40;68.20;;;;;;1707542;29;20469;-83
2022/03/10 10:23:20;;;;;;;11.10;10.07;;;21.50;67.70;;;;;;1709069;29;20865;-83
2022/03/10 10:24:18;;;;;;;11.47;10.30;;;21.60;67.50;;;;;;1708847;29;20477;-83
2022/03/10 10:25:09;;;;;;;10.80;9.70;;;21.60;67.50;;;;;;1708578;29;20454;-84
2022/03/10 10:26:02;;;;;;;11.57;10.07;;;21.60;67.50;;;;;;1708596;29;20446;-83